sensor_id;sensor_type;location;lat;lon;timestamp;P1;durP1;ratioP1;P2;durP2;ratioP2
74898;SDS011;63458;48.210;16.338;2023-09-07T00:02:10;11.23;;;7.45;;
74898;SDS011;63458;48.210;16.338;2023-09-07T00:04:36;10.05;;;7.40;;
74898;SDS011;63458;48.210;16.338;2023-09-07T00:07:02;10.82;;;7.05;;
74898;SDS011;63458;48.210;16.338;2023-09-07T00:09:28;11.32;;;7.05;;
74898;SDS011;63458;48.210;16.338;2023-09-07T00:11:54;10.43;;;7.07;;
74898;SDS011;63458;48.210;16.338;2023-09-07T00:14:20;9.93;;;7.30;;
74898;SDS011;63458;48.210;16.338;2023-09-07T00:16:46;10.27;;;6.68;;
74898;SDS011;63458;48.210;16.338;2023-09-07T00:19:12;9.68;;;6.88;;
74898;SDS011;63458;48.210;16.338;2023-09-07T00:21:38;10.10;;;7.65;;
74898;SDS011;63458;48.210;16.338;2023-09-07T00:24:04;9.85;;;6.75;;
74898;SDS011;63458;48.210;16.338;2023-09-07T00:26:31;9.07;;;6.60;;
74898;SDS011;63458;48.210;16.338;2023-09-07T00:28:57;9.98;;;7.03;;
74898;SDS011;63458;48.210;16.338;2023-09-07T00:31:24;8.80;;;6.63;;
74898;SDS011;63458;48.210;16.338;2023-09-07T00:33:50;9.45;;;6.88;;
74898;SDS011;63458;48.210;16.338;2023-09-07T00:36:16;8.68;;;6.50;;
74898;SDS011;63458;48.210;16.338;2023-09-07T00:38:43;10.18;;;7.30;;
74898;SDS011;63458;48.210;16.338;2023-09-07T00:41:09;10.88;;;6.70;;
74898;SDS011;63458;48.210;16.338;2023-09-07T00:43:35;9.10;;;6.57;;
74898;SDS011;63458;48.210;16.338;2023-09-07T00:46:01;9.43;;;6.75;;
74898;SDS011;63458;48.210;16.338;2023-09-07T00:48:27;8.73;;;6.47;;
74898;SDS011;63458;48.210;16.338;2023-09-07T00:50:53;9.93;;;7.10;;
74898;SDS011;63458;48.210;16.338;2023-09-07T00:53:19;9.48;;;7.40;;
74898;SDS011;63458;48.210;16.338;2023-09-07T00:55:45;10.13;;;6.28;;
74898;SDS011;63458;48.210;16.338;2023-09-07T00:58:11;9.30;;;6.65;;
74898;SDS011;63458;48.210;16.338;2023-09-07T01:00:37;11.43;;;6.50;;
74898;SDS011;63458;48.210;16.338;2023-09-07T01:03:04;10.48;;;7.22;;
74898;SDS011;63458;48.210;16.338;2023-09-07T01:05:41;10.40;;;6.50;;
74898;SDS011;63458;48.210;16.338;2023-09-07T01:08:15;10.15;;;6.47;;
74898;SDS011;63458;48.210;16.338;2023-09-07T01:10:42;9.48;;;6.68;;
74898;SDS011;63458;48.210;16.338;2023-09-07T01:13:08;9.70;;;6.80;;
74898;SDS011;63458;48.210;16.338;2023-09-07T01:15:34;9.15;;;6.88;;
74898;SDS011;63458;48.210;16.338;2023-09-07T01:18:01;9.88;;;6.70;;
74898;SDS011;63458;48.210;16.338;2023-09-07T01:20:27;8.93;;;6.47;;
74898;SDS011;63458;48.210;16.338;2023-09-07T01:22:54;9.43;;;6.55;;
74898;SDS011;63458;48.210;16.338;2023-09-07T01:25:21;9.65;;;6.60;;
74898;SDS011;63458;48.210;16.338;2023-09-07T01:27:47;10.32;;;6.93;;
74898;SDS011;63458;48.210;16.338;2023-09-07T01:30:13;9.52;;;6.28;;
74898;SDS011;63458;48.210;16.338;2023-09-07T01:32:39;9.40;;;6.40;;
74898;SDS011;63458;48.210;16.338;2023-09-07T01:35:05;9.68;;;6.22;;
74898;SDS011;63458;48.210;16.338;2023-09-07T01:37:33;10.23;;;7.20;;
74898;SDS011;63458;48.210;16.338;2023-09-07T01:39:59;10.30;;;6.50;;
74898;SDS011;63458;48.210;16.338;2023-09-07T01:42:25;8.77;;;6.63;;
74898;SDS011;63458;48.210;16.338;2023-09-07T01:44:51;9.07;;;6.30;;
74898;SDS011;63458;48.210;16.338;2023-09-07T01:47:17;9.32;;;6.35;;
74898;SDS011;63458;48.210;16.338;2023-09-07T01:49:44;11.18;;;6.78;;
74898;SDS011;63458;48.210;16.338;2023-09-07T01:52:10;10.13;;;6.72;;
74898;SDS011;63458;48.210;16.338;2023-09-07T01:54:36;10.52;;;6.50;;
74898;SDS011;63458;48.210;16.338;2023-09-07T01:57:02;8.35;;;6.13;;
74898;SDS011;63458;48.210;16.338;2023-09-07T01:59:28;8.98;;;6.43;;
74898;SDS011;63458;48.210;16.338;2023-09-07T02:01:54;9.93;;;6.93;;
74898;SDS011;63458;48.210;16.338;2023-09-07T02:04:20;12.25;;;6.40;;
74898;SDS011;63458;48.210;16.338;2023-09-07T02:06:46;9.38;;;6.82;;
74898;SDS011;63458;48.210;16.338;2023-09-07T02:09:12;8.48;;;6.13;;
74898;SDS011;63458;48.210;16.338;2023-09-07T02:11:38;8.82;;;6.25;;
74898;SDS011;63458;48.210;16.338;2023-09-07T02:14:05;8.43;;;5.97;;
74898;SDS011;63458;48.210;16.338;2023-09-07T02:16:31;8.60;;;6.25;;
74898;SDS011;63458;48.210;16.338;2023-09-07T02:19:02;12.13;;;7.13;;
74898;SDS011;63458;48.210;16.338;2023-09-07T02:21:34;10.15;;;7.15;;
74898;SDS011;63458;48.210;16.338;2023-09-07T02:24:00;9.25;;;6.15;;
74898;SDS011;63458;48.210;16.338;2023-09-07T02:26:26;9.85;;;6.50;;
74898;SDS011;63458;48.210;16.338;2023-09-07T02:28:52;9.20;;;6.78;;
74898;SDS011;63458;48.210;16.338;2023-09-07T02:31:18;9.05;;;6.75;;
74898;SDS011;63458;48.210;16.338;2023-09-07T02:33:44;10.68;;;6.60;;
74898;SDS011;63458;48.210;16.338;2023-09-07T02:36:10;9.88;;;6.90;;
74898;SDS011;63458;48.210;16.338;2023-09-07T02:38:36;9.20;;;7.03;;
74898;SDS011;63458;48.210;16.338;2023-09-07T02:41:02;10.27;;;7.03;;
74898;SDS011;63458;48.210;16.338;2023-09-07T02:43:28;9.50;;;7.32;;
74898;SDS011;63458;48.210;16.338;2023-09-07T02:45:54;10.65;;;6.75;;
74898;SDS011;63458;48.210;16.338;2023-09-07T02:48:20;9.43;;;6.95;;
74898;SDS011;63458;48.210;16.338;2023-09-07T02:50:47;9.55;;;7.57;;
74898;SDS011;63458;48.210;16.338;2023-09-07T02:53:15;9.82;;;6.53;;
74898;SDS011;63458;48.210;16.338;2023-09-07T02:55:41;10.05;;;6.78;;
74898;SDS011;63458;48.210;16.338;2023-09-07T02:58:07;9.63;;;7.47;;
74898;SDS011;63458;48.210;16.338;2023-09-07T03:00:33;9.70;;;7.10;;
74898;SDS011;63458;48.210;16.338;2023-09-07T03:02:59;9.27;;;6.97;;
74898;SDS011;63458;48.210;16.338;2023-09-07T03:05:29;10.50;;;6.80;;
74898;SDS011;63458;48.210;16.338;2023-09-07T03:07:55;9.30;;;6.47;;
74898;SDS011;63458;48.210;16.338;2023-09-07T03:10:21;10.40;;;6.93;;
74898;SDS011;63458;48.210;16.338;2023-09-07T03:12:47;9.88;;;7.00;;
74898;SDS011;63458;48.210;16.338;2023-09-07T03:15:13;9.73;;;6.60;;
74898;SDS011;63458;48.210;16.338;2023-09-07T03:17:39;10.70;;;7.15;;
74898;SDS011;63458;48.210;16.338;2023-09-07T03:20:05;10.30;;;6.75;;
74898;SDS011;63458;48.210;16.338;2023-09-07T03:22:44;9.43;;;6.50;;
74898;SDS011;63458;48.210;16.338;2023-09-07T03:25:10;10.95;;;7.57;;
74898;SDS011;63458;48.210;16.338;2023-09-07T03:27:36;8.52;;;6.30;;
74898;SDS011;63458;48.210;16.338;2023-09-07T03:30:03;10.38;;;7.20;;
74898;SDS011;63458;48.210;16.338;2023-09-07T03:35:02;8.88;;;6.50;;
74898;SDS011;63458;48.210;16.338;2023-09-07T03:37:28;9.10;;;6.15;;
74898;SDS011;63458;48.210;16.338;2023-09-07T03:39:55;10.90;;;7.00;;
74898;SDS011;63458;48.210;16.338;2023-09-07T03:42:21;10.02;;;7.75;;
74898;SDS011;63458;48.210;16.338;2023-09-07T03:44:47;9.10;;;6.93;;
74898;SDS011;63458;48.210;16.338;2023-09-07T03:47:14;10.18;;;7.10;;
74898;SDS011;63458;48.210;16.338;2023-09-07T03:49:40;11.90;;;7.78;;
74898;SDS011;63458;48.210;16.338;2023-09-07T03:52:06;12.93;;;8.98;;
74898;SDS011;63458;48.210;16.338;2023-09-07T03:54:32;9.85;;;7.47;;
74898;SDS011;63458;48.210;16.338;2023-09-07T03:56:58;11.18;;;7.45;;
74898;SDS011;63458;48.210;16.338;2023-09-07T03:59:24;11.77;;;10.38;;
74898;SDS011;63458;48.210;16.338;2023-09-07T04:01:52;12.25;;;9.02;;
74898;SDS011;63458;48.210;16.338;2023-09-07T04:04:19;11.18;;;9.60;;
74898;SDS011;63458;48.210;16.338;2023-09-07T04:06:48;9.95;;;7.88;;
74898;SDS011;63458;48.210;16.338;2023-09-07T04:09:14;10.63;;;7.85;;
74898;SDS011;63458;48.210;16.338;2023-09-07T04:11:40;11.77;;;8.43;;
74898;SDS011;63458;48.210;16.338;2023-09-07T04:14:06;10.43;;;7.68;;
74898;SDS011;63458;48.210;16.338;2023-09-07T04:16:32;10.45;;;7.60;;
74898;SDS011;63458;48.210;16.338;2023-09-07T04:18:58;10.73;;;7.88;;
74898;SDS011;63458;48.210;16.338;2023-09-07T04:21:24;11.05;;;7.63;;
74898;SDS011;63458;48.210;16.338;2023-09-07T04:23:50;9.48;;;7.15;;
74898;SDS011;63458;48.210;16.338;2023-09-07T04:26:16;9.57;;;6.90;;
74898;SDS011;63458;48.210;16.338;2023-09-07T04:28:42;10.38;;;7.07;;
74898;SDS011;63458;48.210;16.338;2023-09-07T04:31:09;12.68;;;7.38;;
74898;SDS011;63458;48.210;16.338;2023-09-07T04:33:36;11.48;;;7.72;;
74898;SDS011;63458;48.210;16.338;2023-09-07T04:36:12;10.10;;;7.47;;
74898;SDS011;63458;48.210;16.338;2023-09-07T04:38:38;9.80;;;7.18;;
74898;SDS011;63458;48.210;16.338;2023-09-07T04:41:05;10.27;;;7.40;;
74898;SDS011;63458;48.210;16.338;2023-09-07T04:43:31;11.27;;;7.93;;
74898;SDS011;63458;48.210;16.338;2023-09-07T04:45:57;11.15;;;8.52;;
74898;SDS011;63458;48.210;16.338;2023-09-07T04:48:23;11.88;;;8.50;;
74898;SDS011;63458;48.210;16.338;2023-09-07T04:50:57;13.13;;;7.15;;
74898;SDS011;63458;48.210;16.338;2023-09-07T04:53:23;11.57;;;7.32;;
74898;SDS011;63458;48.210;16.338;2023-09-07T04:55:49;12.23;;;8.73;;
74898;SDS011;63458;48.210;16.338;2023-09-07T04:58:15;10.43;;;8.10;;
74898;SDS011;63458;48.210;16.338;2023-09-07T05:00:41;11.98;;;7.80;;
74898;SDS011;63458;48.210;16.338;2023-09-07T05:03:07;12.90;;;7.03;;
74898;SDS011;63458;48.210;16.338;2023-09-07T05:05:33;10.35;;;7.47;;
74898;SDS011;63458;48.210;16.338;2023-09-07T05:07:59;10.93;;;7.85;;
74898;SDS011;63458;48.210;16.338;2023-09-07T05:10:25;10.30;;;7.03;;
74898;SDS011;63458;48.210;16.338;2023-09-07T05:12:51;10.85;;;7.78;;
74898;SDS011;63458;48.210;16.338;2023-09-07T05:15:17;10.30;;;7.80;;
74898;SDS011;63458;48.210;16.338;2023-09-07T05:17:43;10.90;;;7.82;;
74898;SDS011;63458;48.210;16.338;2023-09-07T05:20:09;10.60;;;7.55;;
74898;SDS011;63458;48.210;16.338;2023-09-07T05:22:35;10.32;;;7.30;;
74898;SDS011;63458;48.210;16.338;2023-09-07T05:25:04;11.40;;;7.70;;
74898;SDS011;63458;48.210;16.338;2023-09-07T05:27:30;11.13;;;7.50;;
74898;SDS011;63458;48.210;16.338;2023-09-07T05:29:56;10.77;;;7.18;;
74898;SDS011;63458;48.210;16.338;2023-09-07T05:32:22;11.73;;;8.07;;
74898;SDS011;63458;48.210;16.338;2023-09-07T05:34:48;11.07;;;7.50;;
74898;SDS011;63458;48.210;16.338;2023-09-07T05:37:14;11.52;;;8.10;;
74898;SDS011;63458;48.210;16.338;2023-09-07T05:39:40;11.02;;;8.35;;
74898;SDS011;63458;48.210;16.338;2023-09-07T05:42:06;11.27;;;8.63;;
74898;SDS011;63458;48.210;16.338;2023-09-07T05:44:32;11.75;;;8.30;;
74898;SDS011;63458;48.210;16.338;2023-09-07T05:46:58;11.38;;;8.13;;
74898;SDS011;63458;48.210;16.338;2023-09-07T05:49:24;13.50;;;8.85;;
74898;SDS011;63458;48.210;16.338;2023-09-07T05:51:50;13.27;;;9.55;;
74898;SDS011;63458;48.210;16.338;2023-09-07T05:54:17;13.60;;;8.90;;
74898;SDS011;63458;48.210;16.338;2023-09-07T05:56:43;12.32;;;8.90;;
74898;SDS011;63458;48.210;16.338;2023-09-07T05:59:09;12.98;;;9.30;;
74898;SDS011;63458;48.210;16.338;2023-09-07T06:01:35;12.27;;;8.80;;
74898;SDS011;63458;48.210;16.338;2023-09-07T06:04:01;14.15;;;8.10;;
74898;SDS011;63458;48.210;16.338;2023-09-07T06:06:27;11.07;;;8.63;;
74898;SDS011;63458;48.210;16.338;2023-09-07T06:08:53;11.23;;;8.38;;
74898;SDS011;63458;48.210;16.338;2023-09-07T06:11:19;13.95;;;8.80;;
74898;SDS011;63458;48.210;16.338;2023-09-07T06:13:45;11.18;;;8.30;;
74898;SDS011;63458;48.210;16.338;2023-09-07T06:16:12;12.85;;;8.20;;
74898;SDS011;63458;48.210;16.338;2023-09-07T06:18:38;10.88;;;7.68;;
74898;SDS011;63458;48.210;16.338;2023-09-07T06:21:04;10.82;;;8.15;;
74898;SDS011;63458;48.210;16.338;2023-09-07T06:23:30;11.32;;;8.02;;
74898;SDS011;63458;48.210;16.338;2023-09-07T06:25:57;9.88;;;7.25;;
74898;SDS011;63458;48.210;16.338;2023-09-07T06:28:23;10.95;;;8.15;;
74898;SDS011;63458;48.210;16.338;2023-09-07T06:30:49;11.38;;;8.40;;
74898;SDS011;63458;48.210;16.338;2023-09-07T06:33:15;11.20;;;7.80;;
74898;SDS011;63458;48.210;16.338;2023-09-07T06:35:40;11.00;;;7.80;;
74898;SDS011;63458;48.210;16.338;2023-09-07T06:38:07;12.70;;;8.27;;
74898;SDS011;63458;48.210;16.338;2023-09-07T06:40:33;16.17;;;8.50;;
74898;SDS011;63458;48.210;16.338;2023-09-07T06:42:59;11.73;;;8.32;;
74898;SDS011;63458;48.210;16.338;2023-09-07T06:45:25;11.60;;;8.57;;
74898;SDS011;63458;48.210;16.338;2023-09-07T06:47:52;15.02;;;9.40;;
74898;SDS011;63458;48.210;16.338;2023-09-07T06:50:19;12.07;;;8.68;;
74898;SDS011;63458;48.210;16.338;2023-09-07T06:52:46;12.73;;;9.85;;
74898;SDS011;63458;48.210;16.338;2023-09-07T06:55:12;11.90;;;10.20;;
74898;SDS011;63458;48.210;16.338;2023-09-07T06:57:38;13.23;;;8.75;;
74898;SDS011;63458;48.210;16.338;2023-09-07T07:00:04;12.15;;;9.18;;
74898;SDS011;63458;48.210;16.338;2023-09-07T07:02:30;11.73;;;8.07;;
74898;SDS011;63458;48.210;16.338;2023-09-07T07:04:57;13.85;;;8.55;;
74898;SDS011;63458;48.210;16.338;2023-09-07T07:07:23;10.80;;;8.18;;
74898;SDS011;63458;48.210;16.338;2023-09-07T07:09:48;14.18;;;8.90;;
74898;SDS011;63458;48.210;16.338;2023-09-07T07:12:15;13.02;;;8.27;;
74898;SDS011;63458;48.210;16.338;2023-09-07T07:14:41;10.65;;;7.43;;
74898;SDS011;63458;48.210;16.338;2023-09-07T07:17:07;10.95;;;7.45;;
74898;SDS011;63458;48.210;16.338;2023-09-07T07:19:34;10.02;;;6.82;;
74898;SDS011;63458;48.210;16.338;2023-09-07T07:22:00;10.98;;;7.63;;
74898;SDS011;63458;48.210;16.338;2023-09-07T07:24:26;10.80;;;7.50;;
74898;SDS011;63458;48.210;16.338;2023-09-07T07:26:52;11.05;;;7.50;;
74898;SDS011;63458;48.210;16.338;2023-09-07T07:29:18;11.40;;;7.85;;
74898;SDS011;63458;48.210;16.338;2023-09-07T07:31:44;11.30;;;8.10;;
74898;SDS011;63458;48.210;16.338;2023-09-07T07:34:10;11.38;;;7.35;;
74898;SDS011;63458;48.210;16.338;2023-09-07T07:36:36;10.82;;;8.38;;
74898;SDS011;63458;48.210;16.338;2023-09-07T07:39:02;11.65;;;7.53;;
74898;SDS011;63458;48.210;16.338;2023-09-07T07:41:28;13.77;;;8.82;;
74898;SDS011;63458;48.210;16.338;2023-09-07T07:43:55;10.57;;;7.90;;
74898;SDS011;63458;48.210;16.338;2023-09-07T07:46:21;13.85;;;9.30;;
74898;SDS011;63458;48.210;16.338;2023-09-07T07:48:47;11.65;;;7.70;;
74898;SDS011;63458;48.210;16.338;2023-09-07T07:51:13;10.20;;;7.90;;
74898;SDS011;63458;48.210;16.338;2023-09-07T07:53:39;12.65;;;9.82;;
74898;SDS011;63458;48.210;16.338;2023-09-07T07:56:05;10.27;;;7.75;;
74898;SDS011;63458;48.210;16.338;2023-09-07T07:58:31;11.20;;;8.95;;
74898;SDS011;63458;48.210;16.338;2023-09-07T08:00:57;11.02;;;8.07;;
74898;SDS011;63458;48.210;16.338;2023-09-07T08:03:23;10.98;;;8.40;;
74898;SDS011;63458;48.210;16.338;2023-09-07T08:05:50;13.50;;;10.45;;
74898;SDS011;63458;48.210;16.338;2023-09-07T08:08:16;11.77;;;8.73;;
74898;SDS011;63458;48.210;16.338;2023-09-07T08:10:42;12.15;;;9.00;;
74898;SDS011;63458;48.210;16.338;2023-09-07T08:13:09;11.48;;;9.20;;
74898;SDS011;63458;48.210;16.338;2023-09-07T08:15:35;12.10;;;7.95;;
74898;SDS011;63458;48.210;16.338;2023-09-07T08:18:02;12.55;;;8.32;;
74898;SDS011;63458;48.210;16.338;2023-09-07T08:20:28;10.90;;;7.72;;
74898;SDS011;63458;48.210;16.338;2023-09-07T08:22:55;13.02;;;7.70;;
74898;SDS011;63458;48.210;16.338;2023-09-07T08:25:21;12.57;;;7.70;;
74898;SDS011;63458;48.210;16.338;2023-09-07T08:27:48;10.13;;;7.53;;
74898;SDS011;63458;48.210;16.338;2023-09-07T08:30:14;11.40;;;7.30;;
74898;SDS011;63458;48.210;16.338;2023-09-07T08:32:42;10.38;;;7.53;;
74898;SDS011;63458;48.210;16.338;2023-09-07T08:37:38;12.70;;;8.43;;
74898;SDS011;63458;48.210;16.338;2023-09-07T08:40:04;10.68;;;8.10;;
74898;SDS011;63458;48.210;16.338;2023-09-07T08:42:32;14.00;;;8.88;;
74898;SDS011;63458;48.210;16.338;2023-09-07T08:44:59;9.88;;;7.43;;
74898;SDS011;63458;48.210;16.338;2023-09-07T08:47:26;9.85;;;6.93;;
74898;SDS011;63458;48.210;16.338;2023-09-07T08:49:55;10.23;;;7.55;;
74898;SDS011;63458;48.210;16.338;2023-09-07T08:52:22;11.45;;;7.75;;
74898;SDS011;63458;48.210;16.338;2023-09-07T08:54:48;10.75;;;7.00;;
74898;SDS011;63458;48.210;16.338;2023-09-07T08:57:14;9.45;;;6.18;;
74898;SDS011;63458;48.210;16.338;2023-09-07T08:59:41;9.38;;;5.80;;
74898;SDS011;63458;48.210;16.338;2023-09-07T09:02:09;12.65;;;8.05;;
74898;SDS011;63458;48.210;16.338;2023-09-07T09:04:36;13.18;;;8.73;;
74898;SDS011;63458;48.210;16.338;2023-09-07T09:07:02;10.55;;;7.85;;
74898;SDS011;63458;48.210;16.338;2023-09-07T09:09:29;10.38;;;7.75;;
74898;SDS011;63458;48.210;16.338;2023-09-07T09:12:05;11.93;;;8.45;;
74898;SDS011;63458;48.210;16.338;2023-09-07T09:14:32;10.38;;;6.45;;
74898;SDS011;63458;48.210;16.338;2023-09-07T09:16:58;11.73;;;6.68;;
74898;SDS011;63458;48.210;16.338;2023-09-07T09:19:30;12.27;;;6.95;;
74898;SDS011;63458;48.210;16.338;2023-09-07T09:21:57;12.60;;;7.75;;
74898;SDS011;63458;48.210;16.338;2023-09-07T09:24:23;9.77;;;7.38;;
74898;SDS011;63458;48.210;16.338;2023-09-07T09:26:49;9.43;;;7.35;;
74898;SDS011;63458;48.210;16.338;2023-09-07T09:29:15;12.13;;;6.70;;
74898;SDS011;63458;48.210;16.338;2023-09-07T09:31:41;12.38;;;6.85;;
74898;SDS011;63458;48.210;16.338;2023-09-07T09:34:07;10.43;;;6.15;;
74898;SDS011;63458;48.210;16.338;2023-09-07T09:36:35;9.93;;;7.00;;
74898;SDS011;63458;48.210;16.338;2023-09-07T09:39:01;12.90;;;6.82;;
74898;SDS011;63458;48.210;16.338;2023-09-07T09:41:29;11.75;;;5.97;;
74898;SDS011;63458;48.210;16.338;2023-09-07T09:43:56;9.02;;;5.88;;
74898;SDS011;63458;48.210;16.338;2023-09-07T09:46:22;12.30;;;6.85;;
74898;SDS011;63458;48.210;16.338;2023-09-07T09:48:49;10.80;;;6.00;;
74898;SDS011;63458;48.210;16.338;2023-09-07T09:51:16;9.35;;;5.47;;
74898;SDS011;63458;48.210;16.338;2023-09-07T09:53:44;9.40;;;6.53;;
74898;SDS011;63458;48.210;16.338;2023-09-07T09:56:10;9.45;;;6.20;;
74898;SDS011;63458;48.210;16.338;2023-09-07T09:58:36;9.30;;;5.95;;
74898;SDS011;63458;48.210;16.338;2023-09-07T10:01:02;8.80;;;5.28;;
74898;SDS011;63458;48.210;16.338;2023-09-07T10:03:41;12.02;;;5.47;;
74898;SDS011;63458;48.210;16.338;2023-09-07T10:06:23;8.55;;;5.05;;
74898;SDS011;63458;48.210;16.338;2023-09-07T10:11:30;8.95;;;5.55;;
74898;SDS011;63458;48.210;16.338;2023-09-07T10:14:06;8.10;;;5.10;;
74898;SDS011;63458;48.210;16.338;2023-09-07T10:16:45;10.13;;;6.40;;
74898;SDS011;63458;48.210;16.338;2023-09-07T10:19:15;9.65;;;5.43;;
74898;SDS011;63458;48.210;16.338;2023-09-07T10:21:42;7.72;;;5.10;;
74898;SDS011;63458;48.210;16.338;2023-09-07T10:24:08;7.45;;;5.10;;
74898;SDS011;63458;48.210;16.338;2023-09-07T10:26:34;8.80;;;4.57;;
74898;SDS011;63458;48.210;16.338;2023-09-07T10:29:01;9.10;;;5.03;;
74898;SDS011;63458;48.210;16.338;2023-09-07T10:31:28;9.00;;;4.82;;
74898;SDS011;63458;48.210;16.338;2023-09-07T10:34:08;7.82;;;5.00;;
74898;SDS011;63458;48.210;16.338;2023-09-07T10:36:35;9.15;;;4.63;;
74898;SDS011;63458;48.210;16.338;2023-09-07T10:39:02;7.80;;;4.90;;
74898;SDS011;63458;48.210;16.338;2023-09-07T10:41:39;8.30;;;4.70;;
74898;SDS011;63458;48.210;16.338;2023-09-07T10:44:06;8.57;;;4.22;;
74898;SDS011;63458;48.210;16.338;2023-09-07T10:46:32;8.32;;;4.38;;
74898;SDS011;63458;48.210;16.338;2023-09-07T10:48:58;7.20;;;4.07;;
74898;SDS011;63458;48.210;16.338;2023-09-07T10:51:24;10.07;;;4.40;;
74898;SDS011;63458;48.210;16.338;2023-09-07T10:53:50;7.68;;;4.53;;
74898;SDS011;63458;48.210;16.338;2023-09-07T10:56:16;7.30;;;4.40;;
74898;SDS011;63458;48.210;16.338;2023-09-07T10:58:42;8.07;;;4.15;;
74898;SDS011;63458;48.210;16.338;2023-09-07T11:01:09;7.20;;;4.15;;
74898;SDS011;63458;48.210;16.338;2023-09-07T11:03:36;6.82;;;3.90;;
74898;SDS011;63458;48.210;16.338;2023-09-07T11:08:31;8.00;;;4.45;;
74898;SDS011;63458;48.210;16.338;2023-09-07T11:10:58;6.90;;;4.20;;
74898;SDS011;63458;48.210;16.338;2023-09-07T11:13:24;9.30;;;5.43;;
74898;SDS011;63458;48.210;16.338;2023-09-07T11:15:53;7.63;;;4.20;;
74898;SDS011;63458;48.210;16.338;2023-09-07T11:18:20;8.30;;;4.43;;
74898;SDS011;63458;48.210;16.338;2023-09-07T11:20:46;6.80;;;3.83;;
74898;SDS011;63458;48.210;16.338;2023-09-07T11:23:12;7.38;;;4.45;;
74898;SDS011;63458;48.210;16.338;2023-09-07T11:25:38;9.23;;;5.05;;
74898;SDS011;63458;48.210;16.338;2023-09-07T11:28:05;8.38;;;5.15;;
74898;SDS011;63458;48.210;16.338;2023-09-07T11:33:04;9.20;;;4.38;;
74898;SDS011;63458;48.210;16.338;2023-09-07T11:35:30;7.22;;;3.90;;
74898;SDS011;63458;48.210;16.338;2023-09-07T11:37:57;7.05;;;4.03;;
74898;SDS011;63458;48.210;16.338;2023-09-07T11:40:24;7.72;;;4.28;;
74898;SDS011;63458;48.210;16.338;2023-09-07T11:42:50;8.95;;;4.47;;
74898;SDS011;63458;48.210;16.338;2023-09-07T11:45:16;9.82;;;4.60;;
74898;SDS011;63458;48.210;16.338;2023-09-07T11:47:44;8.68;;;5.85;;
74898;SDS011;63458;48.210;16.338;2023-09-07T11:50:10;10.05;;;7.50;;
74898;SDS011;63458;48.210;16.338;2023-09-07T11:52:36;8.50;;;4.30;;
74898;SDS011;63458;48.210;16.338;2023-09-07T11:55:02;10.18;;;7.80;;
74898;SDS011;63458;48.210;16.338;2023-09-07T11:57:28;8.82;;;4.88;;
74898;SDS011;63458;48.210;16.338;2023-09-07T11:59:55;8.85;;;4.63;;
74898;SDS011;63458;48.210;16.338;2023-09-07T12:02:21;7.43;;;4.63;;
74898;SDS011;63458;48.210;16.338;2023-09-07T12:04:47;9.15;;;5.47;;
74898;SDS011;63458;48.210;16.338;2023-09-07T12:07:13;7.72;;;4.18;;
74898;SDS011;63458;48.210;16.338;2023-09-07T12:09:40;9.38;;;6.35;;
74898;SDS011;63458;48.210;16.338;2023-09-07T12:12:06;7.82;;;4.80;;
74898;SDS011;63458;48.210;16.338;2023-09-07T12:14:32;7.68;;;4.10;;
74898;SDS011;63458;48.210;16.338;2023-09-07T12:16:58;9.52;;;5.80;;
74898;SDS011;63458;48.210;16.338;2023-09-07T12:19:24;8.57;;;5.13;;
74898;SDS011;63458;48.210;16.338;2023-09-07T12:21:51;10.65;;;5.60;;
74898;SDS011;63458;48.210;16.338;2023-09-07T12:24:17;7.70;;;4.47;;
74898;SDS011;63458;48.210;16.338;2023-09-07T12:26:43;8.65;;;4.63;;
74898;SDS011;63458;48.210;16.338;2023-09-07T12:29:09;7.88;;;4.45;;
74898;SDS011;63458;48.210;16.338;2023-09-07T12:31:35;8.77;;;4.80;;
74898;SDS011;63458;48.210;16.338;2023-09-07T12:34:01;8.70;;;4.95;;
74898;SDS011;63458;48.210;16.338;2023-09-07T12:36:27;8.98;;;4.90;;
74898;SDS011;63458;48.210;16.338;2023-09-07T12:38:55;7.55;;;4.45;;
74898;SDS011;63458;48.210;16.338;2023-09-07T12:41:26;7.50;;;4.63;;
74898;SDS011;63458;48.210;16.338;2023-09-07T12:43:53;7.97;;;4.60;;
74898;SDS011;63458;48.210;16.338;2023-09-07T12:46:19;8.77;;;4.82;;
74898;SDS011;63458;48.210;16.338;2023-09-07T12:48:45;7.38;;;4.40;;
74898;SDS011;63458;48.210;16.338;2023-09-07T12:51:11;8.38;;;5.90;;
74898;SDS011;63458;48.210;16.338;2023-09-07T12:53:37;7.32;;;4.22;;
74898;SDS011;63458;48.210;16.338;2023-09-07T12:56:04;8.45;;;5.38;;
74898;SDS011;63458;48.210;16.338;2023-09-07T12:58:30;8.45;;;4.45;;
74898;SDS011;63458;48.210;16.338;2023-09-07T13:00:56;8.60;;;4.68;;
74898;SDS011;63458;48.210;16.338;2023-09-07T13:03:22;7.22;;;4.85;;
74898;SDS011;63458;48.210;16.338;2023-09-07T13:05:48;8.10;;;4.50;;
74898;SDS011;63458;48.210;16.338;2023-09-07T13:08:15;7.25;;;4.82;;
74898;SDS011;63458;48.210;16.338;2023-09-07T13:10:41;7.40;;;4.60;;
74898;SDS011;63458;48.210;16.338;2023-09-07T13:13:07;9.73;;;4.88;;
74898;SDS011;63458;48.210;16.338;2023-09-07T13:15:33;8.30;;;5.22;;
74898;SDS011;63458;48.210;16.338;2023-09-07T13:17:59;8.20;;;4.82;;
74898;SDS011;63458;48.210;16.338;2023-09-07T13:20:25;10.57;;;5.40;;
74898;SDS011;63458;48.210;16.338;2023-09-07T13:22:51;9.15;;;5.70;;
74898;SDS011;63458;48.210;16.338;2023-09-07T13:25:17;9.30;;;5.20;;
74898;SDS011;63458;48.210;16.338;2023-09-07T13:27:43;9.68;;;5.15;;
74898;SDS011;63458;48.210;16.338;2023-09-07T13:30:09;9.98;;;4.97;;
74898;SDS011;63458;48.210;16.338;2023-09-07T13:32:38;10.35;;;6.35;;
74898;SDS011;63458;48.210;16.338;2023-09-07T13:35:04;7.53;;;4.43;;
74898;SDS011;63458;48.210;16.338;2023-09-07T13:37:31;8.77;;;4.60;;
74898;SDS011;63458;48.210;16.338;2023-09-07T13:40:00;8.23;;;5.38;;
74898;SDS011;63458;48.210;16.338;2023-09-07T13:42:28;8.77;;;5.15;;
74898;SDS011;63458;48.210;16.338;2023-09-07T13:44:54;11.75;;;5.30;;
74898;SDS011;63458;48.210;16.338;2023-09-07T13:47:21;8.50;;;5.18;;
74898;SDS011;63458;48.210;16.338;2023-09-07T13:49:47;11.02;;;4.85;;
74898;SDS011;63458;48.210;16.338;2023-09-07T13:52:13;9.00;;;5.40;;
74898;SDS011;63458;48.210;16.338;2023-09-07T13:54:39;10.93;;;5.10;;
74898;SDS011;63458;48.210;16.338;2023-09-07T13:57:05;9.38;;;4.97;;
74898;SDS011;63458;48.210;16.338;2023-09-07T13:59:31;11.45;;;6.80;;
74898;SDS011;63458;48.210;16.338;2023-09-07T14:01:59;8.70;;;6.25;;
74898;SDS011;63458;48.210;16.338;2023-09-07T14:04:26;9.07;;;5.70;;
74898;SDS011;63458;48.210;16.338;2023-09-07T14:06:52;8.35;;;5.03;;
74898;SDS011;63458;48.210;16.338;2023-09-07T14:09:18;8.45;;;5.20;;
74898;SDS011;63458;48.210;16.338;2023-09-07T14:11:44;8.35;;;5.50;;
74898;SDS011;63458;48.210;16.338;2023-09-07T14:14:10;8.68;;;4.90;;
74898;SDS011;63458;48.210;16.338;2023-09-07T14:16:36;8.45;;;4.68;;
74898;SDS011;63458;48.210;16.338;2023-09-07T14:19:02;8.43;;;5.30;;
74898;SDS011;63458;48.210;16.338;2023-09-07T14:21:28;8.23;;;4.72;;
74898;SDS011;63458;48.210;16.338;2023-09-07T14:23:54;8.15;;;5.13;;
74898;SDS011;63458;48.210;16.338;2023-09-07T14:26:20;8.60;;;4.75;;
74898;SDS011;63458;48.210;16.338;2023-09-07T14:28:46;8.30;;;5.10;;
74898;SDS011;63458;48.210;16.338;2023-09-07T14:31:12;8.93;;;5.00;;
74898;SDS011;63458;48.210;16.338;2023-09-07T14:33:38;8.48;;;5.43;;
74898;SDS011;63458;48.210;16.338;2023-09-07T14:36:07;18.67;;;16.70;;
74898;SDS011;63458;48.210;16.338;2023-09-07T14:38:34;14.75;;;12.50;;